createdAt,value
2022-12-25T00:00:20.510Z,360.08
2022-12-25T00:00:54.343Z,355.77
2022-12-25T00:01:27.668Z,359.63
2022-12-25T00:02:00.939Z,358.92
2022-12-25T00:02:34.368Z,358.02
2022-12-25T00:03:08.437Z,357.67
2022-12-25T00:03:42.024Z,354.70
2022-12-25T00:04:15.759Z,357.38
2022-12-25T00:04:48.990Z,355.33
2022-12-25T00:05:23.216Z,356.80
2022-12-25T00:05:59.340Z,354.73
2022-12-25T00:06:32.825Z,357.13
2022-12-25T00:07:06.304Z,359.00
2022-12-25T00:07:39.787Z,429.02
2022-12-25T00:08:13.169Z,398.83
2022-12-25T00:08:46.663Z,397.42
2022-12-25T00:09:20.050Z,402.55
2022-12-25T00:09:53.325Z,410.60
2022-12-25T00:10:26.702Z,405.45
2022-12-25T00:11:04.282Z,379.63
2022-12-25T00:11:37.769Z,374.13
2022-12-25T00:12:11.150Z,370.80
2022-12-25T00:12:44.432Z,371.20
2022-12-25T00:13:17.723Z,363.35
2022-12-25T00:13:51.091Z,366.90
2022-12-25T00:14:24.374Z,364.83
2022-12-25T00:14:57.556Z,363.65
2022-12-25T00:15:30.936Z,362.58
2022-12-25T00:16:11.897Z,365.42
2022-12-25T00:16:45.275Z,367.95
2022-12-25T00:17:18.661Z,370.10
2022-12-25T00:17:51.951Z,367.38
2022-12-25T00:18:25.425Z,365.52
2022-12-25T00:18:59.629Z,361.92
2022-12-25T00:19:32.911Z,360.35
2022-12-25T00:20:06.599Z,358.60
2022-12-25T00:20:40.079Z,361.98
2022-12-25T00:21:13.462Z,357.40
2022-12-25T00:21:46.643Z,359.63
2022-12-25T00:22:20.125Z,358.08
2022-12-25T00:22:53.409Z,358.35
2022-12-25T00:23:27.301Z,356.88
2022-12-25T00:24:00.687Z,355.90
2022-12-25T00:24:34.167Z,359.55
2022-12-25T00:25:07.653Z,359.60
2022-12-25T00:25:41.141Z,357.50
2022-12-25T00:26:15.852Z,362.00
2022-12-25T00:26:49.445Z,359.60
2022-12-25T00:27:22.724Z,359.67
2022-12-25T00:27:55.901Z,360.83
2022-12-25T00:28:29.079Z,359.90
2022-12-25T00:29:02.577Z,362.30
2022-12-25T00:29:35.944Z,360.48
2022-12-25T00:30:09.738Z,362.83
2022-12-25T00:30:43.120Z,361.52
2022-12-25T00:31:17.384Z,361.05
2022-12-25T00:31:50.650Z,362.95
2022-12-25T00:32:24.211Z,360.10
2022-12-25T00:32:57.875Z,358.63
2022-12-25T00:33:31.156Z,359.42
2022-12-25T00:34:04.351Z,360.95
2022-12-25T00:34:37.719Z,361.13
2022-12-25T00:35:11.009Z,356.80
2022-12-25T00:35:44.583Z,358.77
2022-12-25T00:36:18.891Z,356.90
2022-12-25T00:36:52.485Z,358.25
2022-12-25T00:37:25.857Z,358.38
2022-12-25T00:37:59.143Z,358.00
2022-12-25T00:38:32.933Z,359.33
2022-12-25T00:39:07.547Z,355.67
2022-12-25T00:39:40.924Z,358.20
2022-12-25T00:40:14.413Z,358.40
2022-12-25T00:40:47.995Z,356.30
2022-12-25T00:41:45.647Z,357.77
2022-12-25T00:42:21.799Z,357.23
2022-12-25T00:42:55.487Z,356.85
2022-12-25T00:43:28.566Z,355.25
2022-12-25T00:44:01.947Z,358.42
2022-12-25T00:44:36.077Z,355.02
2022-12-25T00:45:09.731Z,358.90
2022-12-25T00:45:43.046Z,358.38
2022-12-25T00:46:16.642Z,355.67
2022-12-25T00:46:50.585Z,356.30
2022-12-25T00:47:24.047Z,355.23
2022-12-25T00:47:57.872Z,359.02
2022-12-25T00:48:31.363Z,358.88
2022-12-25T00:49:04.950Z,357.45
2022-12-25T00:49:38.430Z,354.58
2022-12-25T00:50:12.030Z,354.13
2022-12-25T00:50:45.201Z,355.67
2022-12-25T00:51:18.592Z,355.45
2022-12-25T00:51:52.122Z,357.58
2022-12-25T00:52:25.752Z,358.48
2022-12-25T00:52:59.137Z,357.88
2022-12-25T00:53:32.824Z,352.58
2022-12-25T00:54:06.208Z,354.23
2022-12-25T00:54:39.708Z,354.75
2022-12-25T00:55:13.080Z,352.15
2022-12-25T00:55:51.376Z,354.42
2022-12-25T00:56:24.866Z,356.17
2022-12-25T00:56:58.145Z,354.95
2022-12-25T00:57:31.626Z,356.67
2022-12-25T00:58:04.904Z,354.75
2022-12-25T00:58:38.286Z,356.88
2022-12-25T00:59:12.085Z,357.45
2022-12-25T00:59:45.356Z,353.45
2022-12-25T01:00:18.857Z,355.75
2022-12-25T01:00:52.393Z,355.52
2022-12-25T01:01:25.903Z,355.70
2022-12-25T01:02:19.204Z,352.75
2022-12-25T01:02:53.005Z,356.42
2022-12-25T01:03:27.191Z,354.35
2022-12-25T01:04:00.643Z,353.48
2022-12-25T01:04:33.929Z,356.05
2022-12-25T01:05:07.922Z,355.33
2022-12-25T01:05:41.207Z,355.08
2022-12-25T01:06:14.789Z,358.00
2022-12-25T01:06:48.074Z,357.02
2022-12-25T01:07:21.579Z,359.17
2022-12-25T01:07:55.248Z,354.58
2022-12-25T01:08:29.677Z,356.02
2022-12-25T01:09:21.466Z,354.48
2022-12-25T01:10:13.186Z,353.92
2022-12-25T01:10:53.628Z,355.58
2022-12-25T01:11:27.416Z,359.40
2022-12-25T01:12:00.496Z,355.48
2022-12-25T01:12:34.998Z,356.85
2022-12-25T01:13:08.694Z,354.15
2022-12-25T01:13:41.871Z,358.25
2022-12-25T01:14:15.059Z,354.63
2022-12-25T01:14:48.534Z,354.60
2022-12-25T01:15:21.916Z,352.48
2022-12-25T01:15:55.233Z,353.75
2022-12-25T01:16:29.037Z,356.10
2022-12-25T01:17:02.476Z,355.48
2022-12-25T01:17:35.757Z,356.15
2022-12-25T01:18:12.731Z,355.88
2022-12-25T01:18:47.132Z,353.20
2022-12-25T01:19:20.438Z,355.83
2022-12-25T01:19:53.794Z,357.45
2022-12-25T01:20:27.169Z,358.48
2022-12-25T01:21:06.286Z,356.83
2022-12-25T01:21:39.780Z,360.30
2022-12-25T01:22:13.052Z,358.83
2022-12-25T01:22:46.437Z,361.77
2022-12-25T01:23:19.821Z,359.48
2022-12-25T01:23:53.721Z,359.75
2022-12-25T01:24:27.096Z,360.23
2022-12-25T01:25:00.387Z,359.38
2022-12-25T01:25:36.219Z,358.50
2022-12-25T01:26:11.647Z,357.73
2022-12-25T01:26:45.222Z,356.45
2022-12-25T01:27:18.721Z,357.35
2022-12-25T01:27:51.899Z,356.77
2022-12-25T01:28:25.174Z,353.80
2022-12-25T01:28:58.572Z,356.52
2022-12-25T01:29:31.845Z,353.08
2022-12-25T01:30:05.529Z,354.15
2022-12-25T01:30:38.924Z,355.90
2022-12-25T01:31:13.671Z,353.25
2022-12-25T01:31:47.270Z,351.83
2022-12-25T01:32:20.702Z,353.05
2022-12-25T01:32:54.180Z,353.08
2022-12-25T01:33:27.484Z,352.02
2022-12-25T01:34:00.749Z,350.38
2022-12-25T01:34:34.250Z,350.65
2022-12-25T01:35:07.824Z,350.92
2022-12-25T01:35:41.197Z,348.05
2022-12-25T01:36:18.680Z,346.90
2022-12-25T01:36:52.066Z,353.13
2022-12-25T01:37:25.854Z,351.40
2022-12-25T01:37:59.438Z,349.42
2022-12-25T01:38:32.928Z,350.50
2022-12-25T01:39:06.165Z,349.50
2022-12-25T01:39:39.586Z,348.17
2022-12-25T01:40:15.016Z,350.00
2022-12-25T01:40:48.207Z,350.90
2022-12-25T01:41:22.395Z,350.25
2022-12-25T01:41:55.880Z,352.02
2022-12-25T01:42:29.368Z,349.35
2022-12-25T01:43:02.651Z,352.08
2022-12-25T01:43:35.928Z,348.42
2022-12-25T01:44:28.869Z,350.63
2022-12-25T01:45:20.277Z,350.00
2022-12-25T01:45:54.096Z,355.98
2022-12-25T01:46:27.553Z,352.08
2022-12-25T01:47:00.936Z,352.58
2022-12-25T01:47:34.417Z,350.55
2022-12-25T01:48:10.572Z,351.10
2022-12-25T01:48:44.054Z,353.15
2022-12-25T01:49:22.043Z,351.90
2022-12-25T01:49:55.425Z,349.90
2022-12-25T01:50:28.712Z,350.60
2022-12-25T01:51:07.006Z,349.60
2022-12-25T01:51:43.977Z,352.88
2022-12-25T01:52:24.475Z,353.60
2022-12-25T01:52:58.617Z,352.52
2022-12-25T01:53:32.109Z,349.27
2022-12-25T01:54:07.435Z,349.52
2022-12-25T01:54:51.157Z,350.80
2022-12-25T01:55:24.848Z,352.48
2022-12-25T01:56:03.893Z,353.70
2022-12-25T01:56:37.958Z,352.80
2022-12-25T01:57:15.847Z,353.73
2022-12-25T01:57:50.052Z,352.15
2022-12-25T01:58:23.746Z,354.23
2022-12-25T01:58:58.045Z,352.70
2022-12-25T01:59:31.634Z,351.33
2022-12-25T02:00:06.038Z,352.30
2022-12-25T02:00:40.062Z,352.60
2022-12-25T02:01:13.678Z,353.52
2022-12-25T02:01:47.541Z,352.92
2022-12-25T02:02:23.366Z,351.13
2022-12-25T02:02:57.136Z,353.42
2022-12-25T02:03:30.622Z,353.27
2022-12-25T02:04:07.602Z,350.08
2022-12-25T02:04:48.763Z,351.90
2022-12-25T02:05:25.848Z,352.13
2022-12-25T02:06:00.243Z,352.00
2022-12-25T02:06:34.545Z,351.13
2022-12-25T02:07:18.197Z,353.73
2022-12-25T02:07:52.058Z,355.38
2022-12-25T02:08:25.652Z,352.30
2022-12-25T02:08:59.063Z,353.83
2022-12-25T02:09:33.044Z,354.85
2022-12-25T02:10:06.923Z,351.30
2022-12-25T02:10:40.411Z,350.70
2022-12-25T02:11:33.451Z,352.58
2022-12-25T02:12:07.652Z,359.88
2022-12-25T02:12:42.161Z,356.80
2022-12-25T02:13:16.978Z,355.73
2022-12-25T02:13:50.257Z,355.42
2022-12-25T02:14:24.670Z,353.98
2022-12-25T02:15:04.955Z,357.77
2022-12-25T02:16:01.434Z,354.95
2022-12-25T02:16:57.941Z,360.95
2022-12-25T02:17:39.738Z,361.90
2022-12-25T02:18:16.709Z,354.65
2022-12-25T02:18:54.600Z,359.10
2022-12-25T02:19:33.919Z,357.70
2022-12-25T02:20:24.810Z,358.80
2022-12-25T02:21:06.385Z,356.75
2022-12-25T02:22:03.012Z,355.85
2022-12-25T02:22:45.102Z,358.67
2022-12-25T02:23:37.020Z,355.73
2022-12-25T02:24:14.490Z,360.75
2022-12-25T02:24:50.334Z,355.55
2022-12-25T02:25:33.756Z,358.83
2022-12-25T02:26:16.959Z,359.02
2022-12-25T02:26:56.603Z,355.50
2022-12-25T02:27:44.724Z,347.98
2022-12-25T02:28:24.899Z,355.58
2022-12-25T02:29:07.563Z,358.98
2022-12-25T02:30:01.529Z,357.65
2022-12-25T02:30:42.595Z,354.63
2022-12-25T02:31:19.194Z,352.92
2022-12-25T02:36:16.824Z,360.05
2022-12-25T02:36:52.184Z,360.67
2022-12-25T02:37:40.813Z,361.83
2022-12-25T02:38:16.741Z,351.80
2022-12-25T02:39:10.901Z,356.48
2022-12-25T02:39:58.348Z,354.95
2022-12-25T02:40:32.558Z,354.60
2022-12-25T02:41:10.765Z,357.30
2022-12-25T02:41:45.216Z,355.52
2022-12-25T02:42:21.747Z,358.60
2022-12-25T02:43:20.699Z,357.05
2022-12-25T02:44:11.459Z,358.50
2022-12-25T02:45:04.665Z,353.88
2022-12-25T02:46:07.841Z,350.15
2022-12-25T02:46:59.121Z,353.23
2022-12-25T02:47:54.995Z,354.35
2022-12-25T02:48:48.610Z,355.05
2022-12-25T02:49:42.319Z,360.85
2022-12-25T02:50:33.642Z,355.70
2022-12-25T02:51:26.565Z,354.63
2022-12-25T02:52:20.316Z,352.55
2022-12-25T02:53:11.741Z,352.92
2022-12-25T02:54:03.946Z,353.40
2022-12-25T02:55:02.511Z,356.08
2022-12-25T02:55:55.526Z,353.10
2022-12-25T02:56:48.400Z,357.73
2022-12-25T02:57:41.165Z,349.52
2022-12-25T02:58:34.048Z,351.20
2022-12-25T02:59:26.524Z,354.38
2022-12-25T03:00:18.890Z,352.15
2022-12-25T03:01:15.017Z,356.38
2022-12-25T03:02:06.142Z,354.08
2022-12-25T03:02:58.491Z,354.27
2022-12-25T03:03:50.922Z,354.58
2022-12-25T03:04:42.706Z,352.70
2022-12-25T03:05:35.631Z,353.52
2022-12-25T03:06:27.198Z,353.90
2022-12-25T03:07:10.413Z,352.17
2022-12-25T03:07:43.781Z,352.75
2022-12-25T03:08:18.871Z,348.55
2022-12-25T03:08:53.738Z,356.05
2022-12-25T03:09:46.472Z,356.75
2022-12-25T03:10:38.214Z,356.15
2022-12-25T03:11:30.514Z,352.50
2022-12-25T03:12:08.848Z,357.30
2022-12-25T03:12:41.299Z,349.88
2022-12-25T03:13:19.204Z,353.70
2022-12-25T03:13:54.620Z,351.80
2022-12-25T03:14:45.870Z,352.55
2022-12-25T03:15:37.203Z,350.95
2022-12-25T03:16:28.619Z,352.17
2022-12-25T03:17:01.277Z,352.92
2022-12-25T03:17:33.861Z,353.27
2022-12-25T03:18:09.593Z,352.70
2022-12-25T03:18:42.078Z,360.75
2022-12-25T03:19:32.621Z,362.15
2022-12-25T03:20:24.482Z,358.20
2022-12-25T03:21:15.823Z,358.17
2022-12-25T03:22:06.733Z,357.67
2022-12-25T03:22:58.331Z,356.48
2022-12-25T03:23:51.410Z,357.67
2022-12-25T03:24:42.521Z,355.85
2022-12-25T03:25:34.019Z,354.30
2022-12-25T03:26:25.379Z,357.65
2022-12-25T03:26:57.881Z,356.70
2022-12-25T03:27:32.405Z,355.45
2022-12-25T03:28:05.851Z,358.77
2022-12-25T03:28:38.148Z,356.75
2022-12-25T03:29:11.455Z,355.92
2022-12-25T03:30:02.498Z,355.38
2022-12-25T03:31:12.879Z,353.48
2022-12-25T03:31:51.664Z,359.92
2022-12-25T03:32:25.273Z,349.98
2022-12-25T03:33:03.589Z,355.13
2022-12-25T03:34:19.410Z,349.17
2022-12-25T03:35:23.970Z,352.92
2022-12-25T03:36:08.598Z,354.60
2022-12-25T03:36:48.447Z,351.75
2022-12-25T03:37:38.958Z,354.92
2022-12-25T03:38:43.552Z,351.27
2022-12-25T03:39:47.919Z,351.15
2022-12-25T03:40:41.323Z,354.60
2022-12-25T03:41:50.895Z,353.83
2022-12-25T03:43:07.525Z,351.55
2022-12-25T03:44:13.479Z,351.05
2022-12-25T03:45:11.081Z,349.55
2022-12-25T03:46:27.943Z,352.80
2022-12-25T03:47:22.111Z,350.02
2022-12-25T03:48:13.889Z,349.50
2022-12-25T03:49:08.858Z,350.52
2022-12-25T03:50:04.771Z,356.45
2022-12-25T03:51:03.837Z,351.38
2022-12-25T03:51:56.253Z,347.20
2022-12-25T03:52:47.682Z,356.88
2022-12-25T03:53:54.823Z,355.27
2022-12-25T03:54:47.997Z,352.40
2022-12-25T03:55:40.545Z,349.98
2022-12-25T03:56:32.537Z,348.65
2022-12-25T03:57:23.613Z,345.75
2022-12-25T03:58:14.497Z,352.20
2022-12-25T03:59:13.613Z,353.02
2022-12-25T04:00:07.184Z,354.48
2022-12-25T04:01:00.224Z,354.65
2022-12-25T04:01:51.358Z,354.85
2022-12-25T04:02:42.199Z,351.30
2022-12-25T04:03:32.990Z,354.88
2022-12-25T04:04:24.019Z,354.85
2022-12-25T04:05:15.133Z,352.20
2022-12-25T04:06:06.174Z,348.23
2022-12-25T04:06:57.371Z,355.75
2022-12-25T04:07:47.937Z,348.63
2022-12-25T04:08:39.018Z,348.02
2022-12-25T04:09:29.956Z,352.75
2022-12-25T04:10:20.913Z,353.85
2022-12-25T04:11:11.787Z,349.90
2022-12-25T04:12:03.342Z,349.70
2022-12-25T04:12:54.343Z,347.13
2022-12-25T04:13:45.167Z,345.20
2022-12-25T04:14:36.118Z,353.17
2022-12-25T04:15:27.522Z,350.90
2022-12-25T04:16:18.340Z,352.50
2022-12-25T04:17:08.970Z,354.65
2022-12-25T04:18:16.744Z,351.27
2022-12-25T04:19:07.843Z,356.80
2022-12-25T04:19:58.659Z,353.10
2022-12-25T04:20:49.576Z,350.65
2022-12-25T04:21:41.031Z,353.38
2022-12-25T04:22:31.837Z,345.70
2022-12-25T04:23:22.710Z,349.80
2022-12-25T04:24:13.860Z,350.80
2022-12-25T04:25:04.652Z,350.08
2022-12-25T04:25:55.272Z,347.92
2022-12-25T04:26:46.211Z,349.73
2022-12-25T04:27:37.031Z,351.33
2022-12-25T04:28:27.934Z,350.27
2022-12-25T04:29:18.977Z,349.15
2022-12-25T04:30:09.773Z,347.05
2022-12-25T04:31:00.794Z,346.77
2022-12-25T04:31:51.685Z,346.70
2022-12-25T04:32:42.473Z,346.65
2022-12-25T04:33:33.295Z,347.63
2022-12-25T04:34:24.117Z,349.80
2022-12-25T04:35:15.020Z,348.48
2022-12-25T04:36:07.140Z,349.58
2022-12-25T04:36:39.496Z,347.17
2022-12-25T04:37:11.864Z,343.42
2022-12-25T04:37:44.149Z,348.52
2022-12-25T04:38:21.125Z,346.23
2022-12-25T04:38:53.479Z,348.77
2022-12-25T04:39:25.875Z,348.42
2022-12-25T04:39:58.154Z,346.48
2022-12-25T04:40:30.501Z,346.67
2022-12-25T04:41:03.170Z,346.98
2022-12-25T04:41:35.701Z,347.20
2022-12-25T04:42:07.996Z,344.80
2022-12-25T04:42:40.540Z,345.20
2022-12-25T04:43:12.860Z,347.45
2022-12-25T04:43:45.184Z,345.48
2022-12-25T04:44:17.491Z,345.23
2022-12-25T04:44:49.832Z,343.35
2022-12-25T04:45:22.173Z,345.95
2022-12-25T04:45:54.922Z,345.30
2022-12-25T04:46:27.282Z,346.52
2022-12-25T04:46:59.656Z,342.85
2022-12-25T04:47:32.691Z,344.15
2022-12-25T04:48:05.183Z,343.73
2022-12-25T04:48:37.580Z,343.08
2022-12-25T04:49:10.260Z,344.50
2022-12-25T04:49:42.592Z,348.15
2022-12-25T04:50:15.008Z,346.73
2022-12-25T04:50:47.389Z,346.88
2022-12-25T04:51:24.250Z,345.83
2022-12-25T04:51:56.545Z,343.55
2022-12-25T04:52:29.015Z,347.45
2022-12-25T04:53:01.365Z,344.58
2022-12-25T04:53:33.664Z,346.17
2022-12-25T04:54:06.007Z,344.42
2022-12-25T04:54:38.855Z,345.00
2022-12-25T04:55:11.770Z,346.95
2022-12-25T04:55:44.104Z,346.13
2022-12-25T04:56:16.953Z,345.05
2022-12-25T04:56:49.306Z,343.83
2022-12-25T04:57:21.602Z,346.08
2022-12-25T04:57:53.880Z,345.38
2022-12-25T04:58:26.227Z,343.25
2022-12-25T04:58:58.567Z,346.13
2022-12-25T04:59:30.885Z,346.02
2022-12-25T05:00:04.256Z,343.92
2022-12-25T05:00:36.705Z,345.75
2022-12-25T05:01:09.267Z,346.13
2022-12-25T05:01:41.910Z,346.52
2022-12-25T05:02:14.375Z,345.38
2022-12-25T05:02:47.069Z,345.20
2022-12-25T05:03:19.662Z,347.75
2022-12-25T05:03:52.702Z,345.98
2022-12-25T05:04:25.278Z,344.55
2022-12-25T05:04:57.820Z,345.52
2022-12-25T05:05:30.283Z,347.15
2022-12-25T05:06:03.005Z,345.65
2022-12-25T05:06:35.571Z,344.33
2022-12-25T05:07:08.251Z,345.63
2022-12-25T05:07:40.574Z,345.83
2022-12-25T05:08:12.900Z,345.17
2022-12-25T05:08:45.281Z,346.70
2022-12-25T05:09:17.827Z,342.95
2022-12-25T05:09:50.152Z,347.38
2022-12-25T05:10:22.486Z,343.23
2022-12-25T05:10:54.808Z,344.30
2022-12-25T05:11:27.802Z,346.80
2022-12-25T05:12:00.221Z,345.88
2022-12-25T05:12:32.573Z,347.58
2022-12-25T05:13:04.854Z,345.23
2022-12-25T05:13:37.473Z,344.83
2022-12-25T05:14:09.791Z,344.63
2022-12-25T05:14:42.462Z,347.23
2022-12-25T05:15:14.903Z,344.13
2022-12-25T05:15:47.717Z,345.27
2022-12-25T05:16:20.710Z,346.83
2022-12-25T05:16:53.164Z,347.00
2022-12-25T05:17:25.584Z,345.05
2022-12-25T05:17:58.033Z,346.23
2022-12-25T05:18:30.500Z,346.90
2022-12-25T05:19:02.783Z,345.55
2022-12-25T05:19:35.157Z,348.05
2022-12-25T05:20:08.123Z,347.25
2022-12-25T05:20:40.639Z,348.48
2022-12-25T05:21:13.093Z,346.27
2022-12-25T05:21:45.384Z,349.10
2022-12-25T05:22:17.746Z,347.48
2022-12-25T05:22:50.070Z,347.38
2022-12-25T05:23:22.747Z,348.13
2022-12-25T05:23:55.262Z,347.10
2022-12-25T05:24:28.068Z,350.63
2022-12-25T05:25:00.338Z,351.20
2022-12-25T05:25:32.735Z,352.50
2022-12-25T05:26:07.826Z,355.48
2022-12-25T05:26:40.241Z,351.88
2022-12-25T05:27:12.688Z,350.48
2022-12-25T05:27:48.823Z,349.02
2022-12-25T05:28:26.073Z,351.40
2022-12-25T05:28:59.238Z,351.70
2022-12-25T05:29:31.626Z,353.00
2022-12-25T05:30:04.464Z,351.10
2022-12-25T05:30:37.029Z,350.77
2022-12-25T05:31:09.360Z,349.70
2022-12-25T05:31:41.996Z,350.02
2022-12-25T05:32:14.575Z,351.48
2022-12-25T05:32:47.914Z,350.55
2022-12-25T05:33:20.257Z,352.10
2022-12-25T05:33:52.739Z,350.17
2022-12-25T05:34:25.096Z,351.08
2022-12-25T05:34:59.760Z,349.33
2022-12-25T05:35:32.356Z,350.08
2022-12-25T05:36:05.405Z,350.38
2022-12-25T05:36:38.686Z,351.88
2022-12-25T05:37:11.246Z,347.58
2022-12-25T05:37:43.580Z,349.63
2022-12-25T05:38:16.091Z,351.83
2022-12-25T05:38:48.540Z,348.63
2022-12-25T05:39:21.005Z,349.25
2022-12-25T05:39:53.331Z,348.58
2022-12-25T05:40:25.783Z,350.08
2022-12-25T05:40:58.240Z,350.17
2022-12-25T05:41:34.217Z,351.80
2022-12-25T05:42:07.288Z,348.27
2022-12-25T05:42:39.639Z,350.85
2022-12-25T05:43:11.996Z,346.83
2022-12-25T05:43:44.440Z,348.65
2022-12-25T05:44:16.961Z,348.83
2022-12-25T05:44:49.294Z,347.48
2022-12-25T05:45:21.688Z,347.55
2022-12-25T05:45:54.113Z,347.65
2022-12-25T05:46:26.460Z,348.13
2022-12-25T05:46:58.897Z,349.65
2022-12-25T05:47:31.232Z,346.15
2022-12-25T05:48:03.575Z,347.20
2022-12-25T05:48:37.059Z,348.48
2022-12-25T05:49:09.495Z,349.40
2022-12-25T05:49:42.456Z,356.23
2022-12-25T05:50:14.785Z,352.48
2022-12-25T05:50:47.121Z,353.25
2022-12-25T05:51:19.547Z,355.90
2022-12-25T05:51:52.380Z,355.60
2022-12-25T05:52:24.723Z,355.85
2022-12-25T05:52:59.149Z,351.83
2022-12-25T05:53:35.211Z,353.02
2022-12-25T05:54:07.774Z,354.23
2022-12-25T05:54:40.272Z,350.77
2022-12-25T05:55:12.980Z,353.45
2022-12-25T05:55:45.306Z,348.58
2022-12-25T05:56:17.656Z,350.20
2022-12-25T05:56:50.157Z,351.67
2022-12-25T05:57:22.443Z,351.25
2022-12-25T05:57:54.760Z,356.42
2022-12-25T05:58:27.102Z,360.90
2022-12-25T05:58:59.509Z,363.65
2022-12-25T05:59:33.052Z,359.42
2022-12-25T06:00:06.045Z,353.85
2022-12-25T06:00:45.050Z,360.48
2022-12-25T06:01:18.847Z,359.15
2022-12-25T06:01:51.294Z,363.92
2022-12-25T06:02:24.139Z,359.25
2022-12-25T06:02:57.037Z,361.63
2022-12-25T06:03:29.993Z,362.05
2022-12-25T06:04:07.012Z,360.73
2022-12-25T06:04:42.704Z,356.65
2022-12-25T06:05:15.160Z,352.75
2022-12-25T06:05:47.464Z,355.63
2022-12-25T06:06:19.826Z,356.35
2022-12-25T06:06:52.112Z,353.05
2022-12-25T06:07:24.527Z,351.90
2022-12-25T06:07:57.304Z,351.98
2022-12-25T06:08:29.688Z,355.20
2022-12-25T06:09:01.986Z,351.23
2022-12-25T06:09:34.323Z,353.33
2022-12-25T06:10:07.147Z,353.10
2022-12-25T06:10:39.518Z,352.38
2022-12-25T06:11:13.113Z,354.52
2022-12-25T06:11:45.601Z,354.65
2022-12-25T06:12:17.894Z,368.35
2022-12-25T06:12:50.359Z,364.85
2022-12-25T06:13:22.783Z,383.38
2022-12-25T06:13:55.868Z,386.45
2022-12-25T06:14:28.232Z,397.90
2022-12-25T06:15:00.620Z,395.25
2022-12-25T06:15:33.241Z,383.30
2022-12-25T06:16:09.831Z,396.80
2022-12-25T06:16:42.549Z,390.67
2022-12-25T06:17:14.956Z,394.80
2022-12-25T06:17:47.706Z,388.35
2022-12-25T06:18:20.335Z,391.52
2022-12-25T06:18:53.109Z,398.23
2022-12-25T06:19:25.535Z,395.52
2022-12-25T06:19:58.028Z,389.05
2022-12-25T06:20:30.448Z,383.05
2022-12-25T06:21:06.068Z,380.40
2022-12-25T06:21:38.370Z,379.42
2022-12-25T06:22:10.836Z,375.75
2022-12-25T06:22:43.332Z,373.48
2022-12-25T06:23:15.923Z,366.67
2022-12-25T06:23:48.652Z,363.77
2022-12-25T06:24:21.819Z,363.33
2022-12-25T06:24:54.240Z,360.75
2022-12-25T06:25:26.620Z,360.35
2022-12-25T06:25:59.823Z,356.95
2022-12-25T06:26:32.148Z,360.42
2022-12-25T06:27:04.508Z,355.75
2022-12-25T06:27:36.936Z,355.05
2022-12-25T06:28:09.263Z,356.98
2022-12-25T06:28:41.588Z,356.65
2022-12-25T06:29:13.918Z,356.17
2022-12-25T06:29:46.284Z,353.45
2022-12-25T06:30:18.621Z,354.83
2022-12-25T06:30:51.010Z,351.88
2022-12-25T06:31:23.754Z,350.85
2022-12-25T06:31:57.577Z,355.05
2022-12-25T06:32:29.979Z,350.98
2022-12-25T06:33:02.314Z,349.27
2022-12-25T06:33:34.986Z,354.33
2022-12-25T06:34:07.322Z,353.42
2022-12-25T06:34:39.625Z,350.98
2022-12-25T06:35:11.990Z,352.50
2022-12-25T06:35:44.323Z,349.85
2022-12-25T06:36:26.621Z,348.88
2022-12-25T06:36:59.107Z,349.55
2022-12-25T06:37:31.903Z,347.92
2022-12-25T06:38:04.382Z,346.25
2022-12-25T06:38:36.724Z,345.42
2022-12-25T06:39:09.948Z,349.58
2022-12-25T06:39:42.276Z,347.92
2022-12-25T06:40:14.682Z,349.13
2022-12-25T06:40:47.166Z,349.70
2022-12-25T06:41:20.589Z,349.33
2022-12-25T06:41:52.964Z,348.15
2022-12-25T06:42:25.369Z,349.25
2022-12-25T06:42:57.713Z,347.90
2022-12-25T06:43:29.991Z,349.67
2022-12-25T06:44:02.583Z,350.65
2022-12-25T06:44:35.143Z,348.30
2022-12-25T06:45:07.825Z,347.80
2022-12-25T06:45:40.239Z,348.15
2022-12-25T06:46:12.739Z,350.65
2022-12-25T06:46:45.134Z,347.70
2022-12-25T06:47:18.155Z,350.20
2022-12-25T06:47:50.486Z,349.58
2022-12-25T06:48:22.913Z,353.63
2022-12-25T06:48:55.394Z,352.38
2022-12-25T06:49:27.689Z,351.08
2022-12-25T06:50:00.053Z,353.63
2022-12-25T06:50:32.540Z,350.13
2022-12-25T06:51:05.902Z,352.33
2022-12-25T06:51:38.261Z,354.58
2022-12-25T06:52:10.564Z,354.42
2022-12-25T06:52:42.892Z,351.90
2022-12-25T06:53:15.258Z,349.15
2022-12-25T06:53:47.819Z,352.77
2022-12-25T06:54:20.358Z,352.85
2022-12-25T06:54:52.669Z,351.67
2022-12-25T06:55:24.992Z,345.40
2022-12-25T06:56:07.398Z,351.00
2022-12-25T06:56:39.732Z,352.73
2022-12-25T06:57:12.179Z,350.40
2022-12-25T06:57:44.461Z,349.90
2022-12-25T06:58:16.990Z,350.38
2022-12-25T06:58:50.412Z,350.23
2022-12-25T06:59:22.909Z,347.80
2022-12-25T06:59:55.741Z,348.30
2022-12-25T07:00:28.145Z,349.65
2022-12-25T07:01:00.592Z,348.10
2022-12-25T07:01:36.981Z,352.40
2022-12-25T07:02:13.434Z,348.27
2022-12-25T07:02:47.642Z,350.77
2022-12-25T07:03:21.259Z,347.35
2022-12-25T07:03:56.508Z,349.95
2022-12-25T07:04:38.238Z,348.65
2022-12-25T07:05:10.796Z,348.70
2022-12-25T07:05:45.114Z,351.08
2022-12-25T07:06:17.561Z,352.70
2022-12-25T07:06:49.879Z,356.25
2022-12-25T07:07:23.801Z,371.27
2022-12-25T07:07:56.154Z,358.00
2022-12-25T07:08:28.415Z,361.13
2022-12-25T07:09:00.746Z,365.48
2022-12-25T07:09:33.187Z,362.67
2022-12-25T07:10:05.733Z,353.05
2022-12-25T07:10:38.007Z,365.23
2022-12-25T07:11:10.477Z,359.55
2022-12-25T07:11:42.859Z,357.95
2022-12-25T07:12:15.314Z,353.15
2022-12-25T07:12:47.893Z,354.13
2022-12-25T07:13:20.195Z,355.35
2022-12-25T07:13:52.571Z,352.00
2022-12-25T07:14:24.893Z,351.77
2022-12-25T07:14:57.615Z,351.05
2022-12-25T07:15:30.343Z,360.35
2022-12-25T07:16:03.922Z,350.85
2022-12-25T07:16:36.507Z,351.10
2022-12-25T07:17:09.051Z,347.60
2022-12-25T07:17:41.422Z,348.77
2022-12-25T07:18:13.725Z,354.55
2022-12-25T07:18:46.145Z,352.80
2022-12-25T07:19:19.610Z,352.67
2022-12-25T07:19:52.575Z,349.83
2022-12-25T07:20:25.428Z,350.20
2022-12-25T07:20:59.686Z,350.05
2022-12-25T07:21:32.078Z,350.17
2022-12-25T07:22:04.510Z,349.70
2022-12-25T07:22:36.789Z,348.30
2022-12-25T07:23:09.078Z,352.77
2022-12-25T07:23:41.888Z,348.88
2022-12-25T07:24:21.119Z,348.63
2022-12-25T07:24:53.781Z,350.58
2022-12-25T07:25:26.125Z,350.90
2022-12-25T07:25:59.431Z,350.65
2022-12-25T07:26:31.821Z,346.92
2022-12-25T07:27:04.317Z,349.13
2022-12-25T07:27:36.632Z,348.33
2022-12-25T07:28:09.147Z,348.70
2022-12-25T07:28:41.487Z,344.95
2022-12-25T07:29:14.103Z,347.20
2022-12-25T07:29:46.403Z,346.08
2022-12-25T07:30:18.888Z,344.80
2022-12-25T07:30:51.239Z,346.42
2022-12-25T07:31:23.636Z,350.02
2022-12-25T07:31:56.152Z,347.83
2022-12-25T07:32:32.066Z,348.25
2022-12-25T07:33:04.632Z,346.48
2022-12-25T07:33:37.091Z,345.35
2022-12-25T07:34:09.794Z,347.35
2022-12-25T07:34:42.304Z,345.50
2022-12-25T07:35:15.815Z,346.52
2022-12-25T07:35:48.326Z,349.05
2022-12-25T07:36:21.013Z,345.80
2022-12-25T07:36:55.015Z,347.50
2022-12-25T07:37:27.300Z,347.17
2022-12-25T07:37:59.658Z,347.17
2022-12-25T07:38:32.797Z,344.25
2022-12-25T07:39:05.774Z,347.20
2022-12-25T07:39:38.198Z,348.23
2022-12-25T07:40:10.751Z,343.65
2022-12-25T07:40:45.399Z,351.80
2022-12-25T07:41:18.274Z,346.92
2022-12-25T07:41:51.566Z,346.70
2022-12-25T07:42:25.401Z,347.73
2022-12-25T07:43:00.012Z,348.17
2022-12-25T07:43:32.332Z,348.98
2022-12-25T07:44:04.750Z,345.23
2022-12-25T07:44:37.251Z,353.20
2022-12-25T07:45:09.920Z,355.48
2022-12-25T07:45:42.351Z,355.58
2022-12-25T07:46:14.786Z,352.80
2022-12-25T07:46:47.182Z,355.33
2022-12-25T07:47:19.610Z,350.70